createdAt,value
2022-08-11T00:00:11.274Z,13.94
2022-08-11T00:02:42.266Z,13.95
2022-08-11T00:05:12.599Z,13.96
2022-08-11T00:07:45.189Z,13.96
2022-08-11T00:10:15.535Z,13.98
2022-08-11T00:12:45.494Z,13.99
2022-08-11T00:15:14.389Z,13.99
2022-08-11T00:17:43.945Z,14.01
2022-08-11T00:20:16.492Z,13.99
2022-08-11T00:22:45.868Z,14.00
2022-08-11T00:25:16.151Z,13.98
2022-08-11T00:27:45.411Z,13.95
2022-08-11T00:30:14.659Z,13.89
2022-08-11T00:32:45.237Z,13.84
2022-08-11T00:35:51.305Z,13.81
2022-08-11T00:37:48.040Z,13.76
2022-08-11T00:40:18.335Z,13.69
2022-08-11T00:43:06.712Z,13.63
2022-08-11T00:45:40.042Z,13.58
2022-08-11T00:48:28.389Z,13.53
2022-08-11T00:51:01.750Z,13.44
2022-08-11T00:53:35.452Z,13.41
2022-08-11T00:56:06.389Z,13.23
2022-08-11T00:58:53.610Z,13.20
2022-08-11T01:01:25.582Z,13.13
2022-08-11T01:04:11.744Z,13.09
2022-08-11T01:06:45.164Z,13.03
2022-08-11T01:09:33.623Z,13.01
2022-08-11T01:12:16.215Z,12.98
2022-08-11T01:15:02.997Z,12.93
2022-08-11T01:17:36.269Z,12.89
2022-08-11T01:20:44.996Z,12.85
2022-08-11T01:22:55.477Z,12.85
2022-08-11T01:25:57.328Z,12.81
2022-08-11T01:28:20.781Z,12.79
2022-08-11T01:31:07.751Z,12.75
2022-08-11T01:33:54.635Z,12.74
2022-08-11T01:36:25.434Z,12.70
2022-08-11T01:38:58.718Z,12.69
2022-08-11T01:41:30.629Z,12.70
2022-08-11T01:44:19.028Z,12.66
2022-08-11T01:46:55.063Z,12.56
2022-08-11T01:50:07.683Z,12.51
2022-08-11T01:52:07.263Z,12.50
2022-08-11T01:54:40.503Z,12.45
2022-08-11T01:57:20.872Z,12.39
2022-08-11T01:59:51.142Z,12.36
2022-08-11T02:02:24.334Z,12.36
2022-08-11T02:05:00.575Z,12.31
2022-08-11T02:07:32.394Z,12.28
2022-08-11T02:10:38.884Z,12.23
2022-08-11T02:13:15.632Z,12.19
2022-08-11T02:15:45.905Z,12.07
2022-08-11T02:18:16.279Z,12.04
2022-08-11T02:21:05.919Z,11.97
2022-08-11T02:24:05.374Z,11.89
2022-08-11T02:26:14.096Z,11.90
2022-08-11T02:28:47.378Z,11.91
2022-08-11T02:32:23.801Z,11.92
2022-08-11T02:34:15.940Z,11.87
2022-08-11T02:36:46.225Z,11.90
2022-08-11T02:39:16.091Z,11.87
2022-08-11T02:42:07.330Z,11.86
2022-08-11T02:44:39.211Z,11.87
2022-08-11T02:47:13.843Z,11.83
2022-08-11T02:50:00.018Z,11.84
2022-08-11T02:52:45.634Z,11.80
2022-08-11T02:55:56.325Z,11.79
2022-08-11T02:58:11.407Z,11.62
2022-08-11T03:00:57.776Z,11.62
2022-08-11T03:03:38.384Z,11.60
2022-08-11T03:06:11.559Z,11.60
2022-08-11T03:08:41.795Z,11.59
2022-08-11T03:11:33.820Z,11.55
2022-08-11T03:14:28.321Z,11.53
2022-08-11T03:17:15.119Z,11.44
2022-08-11T03:19:48.526Z,11.40
2022-08-11T03:22:27.779Z,11.38
2022-08-11T03:24:58.034Z,11.30
2022-08-11T03:27:44.636Z,11.16
2022-08-11T03:30:20.700Z,11.24
2022-08-11T03:32:53.539Z,11.07
2022-08-11T03:35:22.330Z,11.12
2022-08-11T03:37:59.659Z,11.15
2022-08-11T03:40:53.955Z,11.15
2022-08-11T03:43:50.227Z,11.17
2022-08-11T03:46:30.917Z,11.20
2022-08-11T03:49:08.246Z,11.17
2022-08-11T03:51:45.027Z,11.19
2022-08-11T03:54:14.916Z,11.21
2022-08-11T03:56:51.009Z,11.20
2022-08-11T03:59:28.740Z,11.24
2022-08-11T04:02:16.645Z,11.30
2022-08-11T04:05:04.402Z,11.30
2022-08-11T04:07:34.844Z,11.34
2022-08-11T04:10:08.739Z,11.35
2022-08-11T04:12:39.882Z,11.40
2022-08-11T04:15:28.989Z,11.40
2022-08-11T04:17:59.228Z,11.51
2022-08-11T04:20:32.472Z,11.58
2022-08-11T04:24:13.005Z,11.62
2022-08-11T04:25:59.447Z,11.63
2022-08-11T04:28:42.923Z,11.70
2022-08-11T04:31:50.690Z,11.79
2022-08-11T04:34:09.973Z,11.85
2022-08-11T04:37:17.360Z,11.91
2022-08-11T04:40:03.979Z,12.01
2022-08-11T04:42:55.036Z,12.15
2022-08-11T04:45:41.938Z,12.17
2022-08-11T04:48:30.087Z,12.37
2022-08-11T04:51:21.142Z,12.64
2022-08-11T04:54:09.198Z,12.88
2022-08-11T04:56:57.220Z,13.19
2022-08-11T04:59:52.343Z,13.70
2022-08-11T05:02:25.748Z,14.30
2022-08-11T05:05:19.913Z,14.93
2022-08-11T05:08:02.333Z,15.46
2022-08-11T05:10:40.016Z,15.85
2022-08-11T05:13:25.597Z,16.37
2022-08-11T05:16:13.377Z,16.77
2022-08-11T05:19:01.831Z,17.28
2022-08-11T05:21:49.735Z,17.78
2022-08-11T05:24:37.744Z,18.16
2022-08-11T05:27:26.093Z,18.28
2022-08-11T05:30:14.451Z,18.79
2022-08-11T05:33:02.699Z,18.82
2022-08-11T05:36:02.142Z,19.31
2022-08-11T05:38:37.785Z,19.75
2022-08-11T05:41:25.780Z,20.04
2022-08-11T05:44:20.750Z,20.36
2022-08-11T05:47:03.107Z,20.48
2022-08-11T05:49:51.486Z,21.08
2022-08-11T05:52:42.941Z,21.21
2022-08-11T05:55:31.511Z,21.26
2022-08-11T05:58:07.620Z,21.33
2022-08-11T06:00:43.217Z,22.13
2022-08-11T06:03:13.317Z,22.17
2022-08-11T06:05:43.546Z,22.08
2022-08-11T06:08:13.520Z,22.05
2022-08-11T06:10:43.283Z,22.11
2022-08-11T06:13:14.188Z,22.75
2022-08-11T06:15:50.587Z,21.61
2022-08-11T06:18:21.040Z,22.62
2022-08-11T06:20:51.048Z,21.75
2022-08-11T06:23:23.090Z,21.94
2022-08-11T06:25:56.526Z,21.84
2022-08-11T06:28:31.564Z,21.98
2022-08-11T06:31:00.968Z,21.60
2022-08-11T06:33:34.030Z,21.43
2022-08-11T06:36:13.596Z,21.74
2022-08-11T06:38:52.680Z,22.15
2022-08-11T06:41:31.712Z,22.02
2022-08-11T06:44:06.075Z,22.09
2022-08-11T06:46:39.490Z,22.08
2022-08-11T06:49:12.344Z,21.71
2022-08-11T06:51:41.832Z,22.22
2022-08-11T06:54:12.119Z,22.30
2022-08-11T06:57:28.778Z,22.23
2022-08-11T06:59:49.004Z,22.22
2022-08-11T07:02:31.207Z,22.03
2022-08-11T07:05:16.527Z,22.22
2022-08-11T07:08:33.727Z,22.37
2022-08-11T07:11:28.311Z,22.20
2022-08-11T07:14:16.655Z,22.33
2022-08-11T07:16:46.048Z,22.39
2022-08-11T07:19:34.467Z,22.21
2022-08-11T07:22:22.354Z,22.34
2022-08-11T07:25:14.235Z,22.20
2022-08-11T07:28:03.674Z,22.04
2022-08-11T07:30:33.487Z,22.45
2022-08-11T07:33:03.994Z,22.30
2022-08-11T07:35:34.409Z,22.61
2022-08-11T07:38:07.895Z,22.70
2022-08-11T07:40:37.253Z,22.65
2022-08-11T07:43:07.117Z,22.40
2022-08-11T07:45:54.026Z,22.47
2022-08-11T07:48:40.581Z,22.99
2022-08-11T07:51:27.344Z,23.01
2022-08-11T07:53:58.288Z,23.11
2022-08-11T07:56:48.718Z,23.36
2022-08-11T07:59:16.309Z,23.25
2022-08-11T08:02:04.073Z,23.59
2022-08-11T08:04:52.196Z,23.51
2022-08-11T08:07:41.348Z,23.64
2022-08-11T08:10:28.934Z,23.81
2022-08-11T08:13:16.325Z,24.05
2022-08-11T08:16:03.875Z,24.14
2022-08-11T08:18:37.028Z,24.39
2022-08-11T08:21:15.639Z,24.44
2022-08-11T08:23:45.883Z,24.07
2022-08-11T08:26:34.338Z,24.43
2022-08-11T08:29:23.138Z,24.60
2022-08-11T08:31:53.392Z,24.98
2022-08-11T08:34:22.230Z,24.99
2022-08-11T08:36:52.055Z,25.28
2022-08-11T08:39:22.432Z,25.43
2022-08-11T08:41:52.724Z,24.71
2022-08-11T08:44:40.984Z,24.79
2022-08-11T08:46:54.282Z,25.32
2022-08-11T08:49:24.739Z,25.51
2022-08-11T08:52:20.552Z,25.67
2022-08-11T08:54:26.713Z,26.06
2022-08-11T08:56:56.991Z,26.18
2022-08-11T08:59:47.993Z,26.30
2022-08-11T09:02:02.468Z,26.29
2022-08-11T09:04:31.891Z,26.63
2022-08-11T09:07:03.525Z,26.70
2022-08-11T09:09:34.489Z,26.74
2022-08-11T09:12:05.435Z,26.79
2022-08-11T09:14:56.369Z,26.97
2022-08-11T09:17:27.559Z,26.87
2022-08-11T09:20:01.533Z,25.93
2022-08-11T09:23:03.357Z,25.67
2022-08-11T09:25:39.243Z,25.14
2022-08-11T09:28:09.506Z,25.01
2022-08-11T09:30:39.813Z,25.66
2022-08-11T09:33:08.626Z,25.36
2022-08-11T09:35:38.689Z,24.88
2022-08-11T09:38:27.726Z,24.47
2022-08-11T09:40:57.205Z,24.02
2022-08-11T09:43:44.648Z,24.46
2022-08-11T09:46:13.769Z,24.40
2022-08-11T09:48:46.230Z,24.93
2022-08-11T09:51:15.639Z,24.89
2022-08-11T09:54:02.716Z,25.03
2022-08-11T09:56:36.656Z,24.75
2022-08-11T09:59:06.253Z,24.67
2022-08-11T10:01:42.749Z,24.38
2022-08-11T10:04:14.869Z,24.76
2022-08-11T10:07:04.482Z,24.67
2022-08-11T10:09:53.054Z,24.63
2022-08-11T10:12:24.569Z,24.76
2022-08-11T10:15:12.852Z,24.91
2022-08-11T10:17:44.760Z,25.04
2022-08-11T10:20:13.583Z,25.28
2022-08-11T10:23:01.263Z,25.33
2022-08-11T10:25:48.158Z,25.70
2022-08-11T10:28:33.576Z,26.01
2022-08-11T10:31:05.678Z,25.59
2022-08-11T10:33:59.460Z,25.52
2022-08-11T10:36:24.053Z,25.45
2022-08-11T10:38:53.352Z,26.39
2022-08-11T10:42:03.433Z,26.63
2022-08-11T10:44:11.465Z,26.62
2022-08-11T10:46:58.622Z,26.56
2022-08-11T10:49:28.053Z,27.00
2022-08-11T10:52:15.010Z,26.76
2022-08-11T10:55:03.745Z,27.18
2022-08-11T10:58:05.133Z,27.60
2022-08-11T11:00:21.380Z,27.49
2022-08-11T11:03:22.249Z,27.61
2022-08-11T11:05:26.990Z,27.71
2022-08-11T11:08:02.418Z,28.07
2022-08-11T11:10:32.791Z,27.92
2022-08-11T11:13:19.861Z,27.70
2022-08-11T11:16:06.922Z,27.66
2022-08-11T11:18:37.112Z,28.00
2022-08-11T11:21:10.244Z,27.49
2022-08-11T11:23:45.133Z,28.16
2022-08-11T11:26:27.498Z,27.90
2022-08-11T11:29:10.259Z,27.75
2022-08-11T11:31:53.375Z,28.23
2022-08-11T11:34:35.702Z,27.95
2022-08-11T11:37:06.299Z,27.27
2022-08-11T11:39:36.514Z,26.52
2022-08-11T11:42:07.673Z,25.94
2022-08-11T11:44:37.919Z,25.93
2022-08-11T11:47:08.827Z,26.37
2022-08-11T11:49:41.081Z,26.93
2022-08-11T11:52:11.419Z,26.66
2022-08-11T11:54:43.626Z,26.86
2022-08-11T11:57:31.287Z,27.44
2022-08-11T12:00:18.623Z,27.45
2022-08-11T12:02:47.519Z,28.14
2022-08-11T12:05:16.411Z,28.40
2022-08-11T12:08:12.294Z,28.15
2022-08-11T12:10:34.158Z,28.05
2022-08-11T12:13:21.349Z,28.34
2022-08-11T12:16:31.774Z,28.02
2022-08-11T12:18:22.486Z,28.38
2022-08-11T12:20:51.586Z,28.83
2022-08-11T12:23:38.197Z,29.28
2022-08-11T12:26:27.216Z,29.13
2022-08-11T12:28:56.982Z,29.13
2022-08-11T12:31:26.118Z,28.70
2022-08-11T12:33:56.391Z,28.63
2022-08-11T12:36:25.200Z,28.40
2022-08-11T12:38:55.573Z,27.35
2022-08-11T12:41:42.862Z,26.59
2022-08-11T12:44:26.347Z,26.52
2022-08-11T12:46:56.436Z,27.10
2022-08-11T12:49:45.693Z,27.76
2022-08-11T12:52:15.941Z,27.65
2022-08-11T12:54:59.051Z,28.56
2022-08-11T12:57:47.435Z,28.55
2022-08-11T13:00:34.721Z,27.70
2022-08-11T13:03:22.321Z,26.63
2022-08-11T13:05:52.556Z,26.81
2022-08-11T13:08:22.995Z,25.83
2022-08-11T13:11:12.385Z,25.54
2022-08-11T13:13:54.868Z,25.38
2022-08-11T13:16:15.011Z,25.62
2022-08-11T13:18:45.073Z,26.59
2022-08-11T13:21:20.486Z,26.84
2022-08-11T13:23:59.499Z,27.63
2022-08-11T13:26:16.946Z,27.81
2022-08-11T13:28:45.944Z,26.32
2022-08-11T13:31:15.690Z,26.58
2022-08-11T13:33:51.816Z,25.96
2022-08-11T13:36:21.786Z,25.90
2022-08-11T13:38:53.814Z,25.45
2022-08-11T13:41:39.290Z,26.43
2022-08-11T13:44:09.903Z,26.97
2022-08-11T13:46:39.808Z,27.44
2022-08-11T13:49:10.207Z,27.76
2022-08-11T13:51:40.014Z,27.73
2022-08-11T13:54:10.331Z,27.75
2022-08-11T13:56:40.706Z,27.89
2022-08-11T13:59:11.009Z,27.51
2022-08-11T14:02:20.400Z,28.33
2022-08-11T14:04:30.884Z,28.11
2022-08-11T14:06:47.524Z,27.89
2022-08-11T14:09:17.789Z,28.17
2022-08-11T14:12:21.553Z,28.49
2022-08-11T14:14:41.655Z,28.59
2022-08-11T14:17:10.875Z,28.65
2022-08-11T14:19:43.650Z,28.47
2022-08-11T14:22:14.269Z,28.75
2022-08-11T14:24:45.545Z,28.30
2022-08-11T14:28:22.086Z,28.46
2022-08-11T14:29:48.834Z,28.46
2022-08-11T14:32:17.584Z,28.47
2022-08-11T14:34:46.500Z,28.28
2022-08-11T14:37:17.868Z,28.23
2022-08-11T14:40:02.900Z,28.20
2022-08-11T14:42:46.202Z,28.16
2022-08-11T14:45:58.222Z,28.25
2022-08-11T14:48:06.841Z,28.16
2022-08-11T14:50:37.888Z,28.20
2022-08-11T14:53:08.124Z,28.21
2022-08-11T14:55:56.595Z,28.28
2022-08-11T14:58:26.820Z,28.56
2022-08-11T15:00:57.275Z,28.29
2022-08-11T15:03:28.300Z,27.89
2022-08-11T15:05:58.576Z,27.87
2022-08-11T15:08:47.478Z,28.15
2022-08-11T15:11:35.661Z,27.91
2022-08-11T15:14:06.492Z,27.23
2022-08-11T15:16:54.588Z,27.36
2022-08-11T15:19:24.705Z,27.67
2022-08-11T15:22:11.607Z,27.44
2022-08-11T15:24:40.492Z,27.55
2022-08-11T15:27:15.246Z,27.60
2022-08-11T15:30:02.499Z,27.53
2022-08-11T15:32:50.700Z,27.35
2022-08-11T15:35:39.409Z,27.22
2022-08-11T15:38:11.705Z,27.34
2022-08-11T15:40:59.336Z,27.05
2022-08-11T15:43:51.245Z,27.03
2022-08-11T15:46:21.475Z,26.71
2022-08-11T15:48:52.877Z,26.18
2022-08-11T15:51:32.955Z,26.42
2022-08-11T15:54:08.564Z,25.79
2022-08-11T15:56:35.799Z,25.73
2022-08-11T15:59:41.486Z,25.87
2022-08-11T16:02:13.118Z,26.06
2022-08-11T16:04:45.754Z,25.82
2022-08-11T16:07:18.746Z,25.92
2022-08-11T16:09:51.905Z,26.12
2022-08-11T16:12:23.154Z,26.18
2022-08-11T16:15:11.474Z,26.02
2022-08-11T16:17:44.785Z,25.79
2022-08-11T16:20:14.785Z,26.02
2022-08-11T16:23:00.313Z,25.70
2022-08-11T16:27:03.507Z,25.36
2022-08-11T16:27:55.072Z,25.74
2022-08-11T16:30:25.634Z,25.62
2022-08-11T16:32:58.956Z,25.74
2022-08-11T16:35:46.442Z,25.27
2022-08-11T16:38:33.865Z,25.24
2022-08-11T16:41:07.118Z,25.36
2022-08-11T16:43:53.921Z,25.14
2022-08-11T16:46:43.942Z,25.33
2022-08-11T16:49:15.294Z,25.48
2022-08-11T16:51:44.105Z,25.37
2022-08-11T16:54:13.177Z,24.87
2022-08-11T16:56:43.403Z,24.91
2022-08-11T16:59:17.316Z,25.11
2022-08-11T17:01:51.228Z,25.00
2022-08-11T17:04:45.478Z,25.21
2022-08-11T17:07:23.816Z,25.32
2022-08-11T17:10:06.739Z,25.02
2022-08-11T17:12:57.282Z,25.15
2022-08-11T17:15:45.204Z,24.87
2022-08-11T17:18:21.645Z,25.15
2022-08-11T17:20:50.756Z,24.75
2022-08-11T17:23:37.566Z,24.94
2022-08-11T17:26:06.586Z,24.60
2022-08-11T17:28:35.770Z,24.62
2022-08-11T17:31:23.784Z,24.60
2022-08-11T17:33:57.885Z,24.66
2022-08-11T17:36:27.075Z,23.98
2022-08-11T17:38:58.030Z,24.25
2022-08-11T17:41:44.668Z,23.65
2022-08-11T17:44:32.793Z,23.59
2022-08-11T17:47:25.682Z,23.13
2022-08-11T17:49:51.215Z,23.06
2022-08-11T17:52:39.410Z,22.81
2022-08-11T17:55:52.696Z,22.53
2022-08-11T17:58:15.606Z,22.58
2022-08-11T18:00:44.845Z,22.41
2022-08-11T18:03:32.214Z,22.12
2022-08-11T18:06:04.245Z,21.99
2022-08-11T18:08:51.795Z,21.80
2022-08-11T18:12:09.846Z,21.74
2022-08-11T18:14:29.282Z,21.66
2022-08-11T18:17:16.442Z,21.48
2022-08-11T18:20:03.214Z,21.38
2022-08-11T18:22:51.352Z,21.18
2022-08-11T18:25:44.680Z,21.28
2022-08-11T18:28:29.132Z,21.05
2022-08-11T18:31:18.340Z,21.02
2022-08-11T18:34:08.008Z,20.83
2022-08-11T18:36:56.057Z,20.81
2022-08-11T18:39:44.093Z,20.82
2022-08-11T18:42:34.140Z,20.79
2022-08-11T18:45:22.283Z,20.77
2022-08-11T18:48:11.384Z,20.67
2022-08-11T18:51:28.883Z,20.69
2022-08-11T18:53:49.394Z,20.63
2022-08-11T18:56:37.967Z,20.60
2022-08-11T18:59:25.739Z,20.56
2022-08-11T19:02:13.750Z,20.50
2022-08-11T19:05:02.099Z,20.51
2022-08-11T19:07:50.693Z,20.52
2022-08-11T19:10:38.676Z,20.45
2022-08-11T19:13:29.138Z,20.43
2022-08-11T19:16:17.153Z,20.36
2022-08-11T19:19:04.358Z,20.27
2022-08-11T19:21:52.071Z,20.29
2022-08-11T19:24:38.729Z,20.35
2022-08-11T19:27:26.959Z,20.47
2022-08-11T19:30:15.714Z,20.30
2022-08-11T19:33:04.571Z,20.29
2022-08-11T19:35:52.490Z,20.28
2022-08-11T19:38:40.348Z,20.26
2022-08-11T19:41:56.735Z,20.22
2022-08-11T19:44:18.123Z,20.20
2022-08-11T19:47:08.093Z,20.10
2022-08-11T19:49:56.424Z,20.05
2022-08-11T19:52:44.481Z,20.06
2022-08-11T19:55:32.815Z,20.05
2022-08-11T19:58:20.962Z,20.00
2022-08-11T20:01:08.805Z,19.96
2022-08-11T20:03:55.832Z,20.02
2022-08-11T20:06:44.485Z,20.25
2022-08-11T20:10:05.304Z,20.03
2022-08-11T20:12:21.104Z,19.83
2022-08-11T20:15:11.407Z,19.43
2022-08-11T20:17:59.672Z,19.34
2022-08-11T20:20:47.635Z,19.13
2022-08-11T20:23:36.491Z,18.94
2022-08-11T20:26:31.835Z,18.78
2022-08-11T20:29:13.515Z,18.69
2022-08-11T20:32:01.432Z,18.43
2022-08-11T20:34:50.993Z,18.27
2022-08-11T20:37:40.687Z,18.19
2022-08-11T20:40:27.901Z,18.03
2022-08-11T20:44:05.146Z,17.96
2022-08-11T20:46:05.680Z,17.78
2022-08-11T20:48:54.913Z,17.61
2022-08-11T20:51:41.566Z,17.49
2022-08-11T20:54:43.011Z,17.39
2022-08-11T20:57:17.607Z,17.29
2022-08-11T21:00:05.633Z,17.30
2022-08-11T21:02:54.349Z,17.17
2022-08-11T21:06:08.828Z,17.05
2022-08-11T21:08:31.525Z,16.93
2022-08-11T21:11:27.657Z,16.83
2022-08-11T21:14:07.687Z,16.71
2022-08-11T21:16:56.642Z,16.62
2022-08-11T21:20:00.682Z,16.53
2022-08-11T21:22:35.105Z,16.30
2022-08-11T21:25:23.323Z,16.23
2022-08-11T21:28:10.964Z,16.19
2022-08-11T21:30:58.847Z,16.07
2022-08-11T21:33:46.644Z,16.07
2022-08-11T21:36:34.863Z,16.04
2022-08-11T21:39:24.732Z,15.96
2022-08-11T21:42:13.232Z,15.93
2022-08-11T21:45:00.571Z,15.84
2022-08-11T21:47:48.439Z,15.85
2022-08-11T21:50:35.266Z,15.77
2022-08-11T21:53:23.179Z,15.72
2022-08-11T21:56:10.694Z,15.63
2022-08-11T21:58:58.569Z,15.60
2022-08-11T22:01:47.716Z,15.59
2022-08-11T22:04:36.022Z,15.50
2022-08-11T22:07:23.748Z,15.45
2022-08-11T22:10:40.150Z,15.36
2022-08-11T22:12:58.480Z,15.31
2022-08-11T22:15:45.241Z,15.25
2022-08-11T22:18:32.062Z,15.18
2022-08-11T22:22:01.442Z,15.17
2022-08-11T22:24:08.005Z,15.20
2022-08-11T22:26:56.617Z,15.14
2022-08-11T22:29:50.619Z,15.02
2022-08-11T22:32:32.031Z,14.96
2022-08-11T22:35:19.620Z,14.95
2022-08-11T22:38:06.899Z,14.95
2022-08-11T22:40:53.621Z,14.88
2022-08-11T22:43:40.170Z,14.84
2022-08-11T22:46:28.566Z,14.75
2022-08-11T22:49:16.042Z,14.65
2022-08-11T22:52:02.894Z,14.61
2022-08-11T22:54:52.120Z,14.56
2022-08-11T22:57:40.419Z,14.53
2022-08-11T23:00:30.262Z,14.48
2022-08-11T23:03:37.960Z,14.43
2022-08-11T23:06:06.060Z,14.40
2022-08-11T23:08:52.973Z,14.33
2022-08-11T23:12:07.347Z,14.25
2022-08-11T23:14:28.394Z,14.06
2022-08-11T23:17:17.033Z,14.11
2022-08-11T23:20:20.637Z,14.10
2022-08-11T23:22:54.280Z,13.89
2022-08-11T23:25:41.759Z,13.83
2022-08-11T23:28:28.983Z,13.78
2022-08-11T23:31:15.941Z,13.79
2022-08-11T23:34:04.308Z,13.75
2022-08-11T23:36:51.016Z,13.75
2022-08-11T23:39:37.977Z,13.75
2022-08-11T23:42:24.963Z,13.59
2022-08-11T23:45:11.844Z,13.60
2022-08-11T23:48:00.191Z,13.56
2022-08-11T23:50:48.537Z,13.54
2022-08-11T23:53:36.448Z,13.53
2022-08-11T23:56:23.618Z,13.50
2022-08-11T23:59:12.225Z,13.42
